sensor_id;sensor_type;location;lat;lon;timestamp;pressure;altitude;pressure_sealevel;temperature;humidity
6132;BME280;3097;42.692;23.278;2023-02-19T00:01:13;95308.63;;;7.46;61.25
6132;BME280;3097;42.692;23.278;2023-02-19T00:03:39;95309.69;;;7.65;60.77
6132;BME280;3097;42.692;23.278;2023-02-19T00:06:08;95325.84;;;7.59;61.33
6132;BME280;3097;42.692;23.278;2023-02-19T00:08:35;95301.97;;;7.58;61.40
6132;BME280;3097;42.692;23.278;2023-02-19T00:11:10;95301.75;;;7.53;61.89
6132;BME280;3097;42.692;23.278;2023-02-19T00:13:38;95295.00;;;7.46;61.64
6132;BME280;3097;42.692;23.278;2023-02-19T00:16:24;95295.38;;;7.36;62.47
6132;BME280;3097;42.692;23.278;2023-02-19T00:18:50;95291.03;;;7.36;62.34
6132;BME280;3097;42.692;23.278;2023-02-19T00:21:17;95281.00;;;7.42;62.34
6132;BME280;3097;42.692;23.278;2023-02-19T00:23:43;95293.75;;;7.28;62.99
6132;BME280;3097;42.692;23.278;2023-02-19T00:26:12;95299.28;;;7.32;62.67
6132;BME280;3097;42.692;23.278;2023-02-19T00:28:38;95280.03;;;7.08;62.95
6132;BME280;3097;42.692;23.278;2023-02-19T00:31:08;95276.78;;;6.93;63.88
6132;BME280;3097;42.692;23.278;2023-02-19T00:33:34;95279.81;;;7.03;63.73
6132;BME280;3097;42.692;23.278;2023-02-19T00:36:01;95284.56;;;7.06;63.74
6132;BME280;3097;42.692;23.278;2023-02-19T00:38:28;95259.00;;;6.85;64.00
6132;BME280;3097;42.692;23.278;2023-02-19T00:40:53;95280.16;;;6.93;64.32
6132;BME280;3097;42.692;23.278;2023-02-19T00:43:19;95259.22;;;6.83;64.99
6132;BME280;3097;42.692;23.278;2023-02-19T00:45:44;95262.44;;;6.98;64.05
6132;BME280;3097;42.692;23.278;2023-02-19T00:48:10;95267.31;;;7.21;63.27
6132;BME280;3097;42.692;23.278;2023-02-19T00:50:35;95260.34;;;7.15;63.79
6132;BME280;3097;42.692;23.278;2023-02-19T00:53:00;95253.00;;;6.99;64.13
6132;BME280;3097;42.692;23.278;2023-02-19T00:55:26;95245.53;;;7.04;63.89
6132;BME280;3097;42.692;23.278;2023-02-19T00:57:51;95234.81;;;6.94;64.24
6132;BME280;3097;42.692;23.278;2023-02-19T01:00:17;95249.06;;;7.03;63.97
6132;BME280;3097;42.692;23.278;2023-02-19T01:02:42;95217.06;;;6.92;63.76
6132;BME280;3097;42.692;23.278;2023-02-19T01:05:07;95259.75;;;7.07;64.40
6132;BME280;3097;42.692;23.278;2023-02-19T01:07:35;95263.53;;;7.17;63.77
6132;BME280;3097;42.692;23.278;2023-02-19T01:10:00;95255.00;;;7.10;63.57
6132;BME280;3097;42.692;23.278;2023-02-19T01:12:26;95165.44;;;6.54;63.93
6132;BME280;3097;42.692;23.278;2023-02-19T01:14:53;95251.84;;;7.08;64.11
6132;BME280;3097;42.692;23.278;2023-02-19T01:17:19;95246.78;;;7.21;63.76
6132;BME280;3097;42.692;23.278;2023-02-19T01:19:45;95235.50;;;7.16;63.79
6132;BME280;3097;42.692;23.278;2023-02-19T01:22:10;95251.91;;;7.21;63.87
6132;BME280;3097;42.692;23.278;2023-02-19T01:24:36;95256.59;;;7.11;64.19
6132;BME280;3097;42.692;23.278;2023-02-19T01:27:02;95257.78;;;7.15;63.99
6132;BME280;3097;42.692;23.278;2023-02-19T01:29:27;95250.50;;;7.19;64.18
6132;BME280;3097;42.692;23.278;2023-02-19T01:31:52;95265.47;;;7.15;64.04
6132;BME280;3097;42.692;23.278;2023-02-19T01:34:18;95270.84;;;7.20;64.08
6132;BME280;3097;42.692;23.278;2023-02-19T01:36:43;95271.91;;;6.98;64.79
6132;BME280;3097;42.692;23.278;2023-02-19T01:39:09;95267.00;;;7.03;64.12
6132;BME280;3097;42.692;23.278;2023-02-19T01:41:37;95276.28;;;7.04;64.05
6132;BME280;3097;42.692;23.278;2023-02-19T01:46:51;95258.13;;;6.99;63.72
6132;BME280;3097;42.692;23.278;2023-02-19T01:49:28;95198.34;;;6.57;63.93
6132;BME280;3097;42.692;23.278;2023-02-19T01:54:37;95296.59;;;7.06;64.05
6132;BME280;3097;42.692;23.278;2023-02-19T01:57:07;95274.47;;;6.98;63.69
6132;BME280;3097;42.692;23.278;2023-02-19T01:59:35;95273.03;;;6.89;64.40
6132;BME280;3097;42.692;23.278;2023-02-19T02:02:02;95292.56;;;6.90;64.68
6132;BME280;3097;42.692;23.278;2023-02-19T02:04:30;95297.16;;;7.01;64.38
6132;BME280;3097;42.692;23.278;2023-02-19T02:06:56;95293.06;;;7.07;64.06
6132;BME280;3097;42.692;23.278;2023-02-19T02:09:26;95302.72;;;7.11;63.58
6132;BME280;3097;42.692;23.278;2023-02-19T02:12:11;95231.88;;;6.63;64.13
6132;BME280;3097;42.692;23.278;2023-02-19T02:14:44;95281.22;;;6.78;65.00
6132;BME280;3097;42.692;23.278;2023-02-19T02:17:23;95290.81;;;6.97;64.39
6132;BME280;3097;42.692;23.278;2023-02-19T02:31:32;95297.53;;;6.98;63.80
6132;BME280;3097;42.692;23.278;2023-02-19T02:34:17;95284.19;;;6.75;64.74
6132;BME280;3097;42.692;23.278;2023-02-19T02:36:47;95273.81;;;6.61;64.81
6132;BME280;3097;42.692;23.278;2023-02-19T02:39:17;95283.06;;;6.84;64.43
6132;BME280;3097;42.692;23.278;2023-02-19T02:41:55;95306.84;;;6.78;64.70
6132;BME280;3097;42.692;23.278;2023-02-19T02:44:40;95296.63;;;6.84;64.60
6132;BME280;3097;42.692;23.278;2023-02-19T02:47:07;95300.56;;;6.80;64.61
6132;BME280;3097;42.692;23.278;2023-02-19T02:49:55;95303.31;;;6.79;64.95
6132;BME280;3097;42.692;23.278;2023-02-19T02:52:32;95304.25;;;6.71;64.99
6132;BME280;3097;42.692;23.278;2023-02-19T02:55:19;95306.88;;;6.84;64.16
6132;BME280;3097;42.692;23.278;2023-02-19T02:57:45;95293.03;;;6.72;64.90
6132;BME280;3097;42.692;23.278;2023-02-19T03:00:11;95301.50;;;6.73;64.88
6132;BME280;3097;42.692;23.278;2023-02-19T03:02:38;95297.19;;;6.73;64.67
6132;BME280;3097;42.692;23.278;2023-02-19T03:05:06;95307.78;;;6.70;64.92
6132;BME280;3097;42.692;23.278;2023-02-19T03:07:53;95308.31;;;6.59;65.42
6132;BME280;3097;42.692;23.278;2023-02-19T03:10:34;95309.91;;;6.60;65.02
6132;BME280;3097;42.692;23.278;2023-02-19T03:13:02;95307.38;;;6.39;66.38
6132;BME280;3097;42.692;23.278;2023-02-19T03:15:50;95312.03;;;6.35;66.91
6132;BME280;3097;42.692;23.278;2023-02-19T03:18:40;95306.06;;;6.49;66.46
6132;BME280;3097;42.692;23.278;2023-02-19T03:21:27;95300.31;;;6.47;66.26
6132;BME280;3097;42.692;23.278;2023-02-19T03:23:54;95305.91;;;6.57;65.86
6132;BME280;3097;42.692;23.278;2023-02-19T03:26:40;95310.56;;;6.47;66.37
6132;BME280;3097;42.692;23.278;2023-02-19T03:29:08;95319.28;;;6.53;66.09
6132;BME280;3097;42.692;23.278;2023-02-19T03:31:50;95329.84;;;6.43;66.38
6132;BME280;3097;42.692;23.278;2023-02-19T03:34:21;95331.56;;;6.36;66.38
6132;BME280;3097;42.692;23.278;2023-02-19T03:36:59;95331.78;;;6.41;65.85
6132;BME280;3097;42.692;23.278;2023-02-19T03:39:28;95325.81;;;6.34;65.97
6132;BME280;3097;42.692;23.278;2023-02-19T03:42:24;95323.75;;;6.23;66.76
6132;BME280;3097;42.692;23.278;2023-02-19T03:50:51;95342.81;;;6.20;66.86
6132;BME280;3097;42.692;23.278;2023-02-19T03:56:15;95344.25;;;6.23;66.74
6132;BME280;3097;42.692;23.278;2023-02-19T03:58:52;95355.50;;;6.29;66.73
6132;BME280;3097;42.692;23.278;2023-02-19T04:01:40;95338.38;;;6.29;66.40
6132;BME280;3097;42.692;23.278;2023-02-19T04:04:31;95352.66;;;6.38;66.20
6132;BME280;3097;42.692;23.278;2023-02-19T04:06:57;95357.09;;;6.51;65.48
6132;BME280;3097;42.692;23.278;2023-02-19T04:09:29;95323.13;;;6.42;64.85
6132;BME280;3097;42.692;23.278;2023-02-19T04:11:59;95350.63;;;6.76;64.32
6132;BME280;3097;42.692;23.278;2023-02-19T04:14:52;95348.31;;;6.88;63.92
6132;BME280;3097;42.692;23.278;2023-02-19T04:17:23;95352.09;;;6.92;63.31
6132;BME280;3097;42.692;23.278;2023-02-19T04:19:51;95366.59;;;7.06;62.92
6132;BME280;3097;42.692;23.278;2023-02-19T04:22:19;95360.72;;;7.12;62.74
6132;BME280;3097;42.692;23.278;2023-02-19T04:24:49;95364.56;;;7.29;62.02
6132;BME280;3097;42.692;23.278;2023-02-19T04:27:16;95364.84;;;7.48;61.41
6132;BME280;3097;42.692;23.278;2023-02-19T04:29:42;95344.94;;;7.50;60.52
6132;BME280;3097;42.692;23.278;2023-02-19T04:32:11;95360.59;;;7.61;60.64
6132;BME280;3097;42.692;23.278;2023-02-19T04:34:37;95350.75;;;7.65;59.85
6132;BME280;3097;42.692;23.278;2023-02-19T04:37:03;95370.34;;;7.79;60.04
6132;BME280;3097;42.692;23.278;2023-02-19T04:39:29;95373.50;;;7.81;59.91
6132;BME280;3097;42.692;23.278;2023-02-19T04:41:54;95346.19;;;7.67;60.00
6132;BME280;3097;42.692;23.278;2023-02-19T04:44:20;95362.66;;;7.79;60.28
6132;BME280;3097;42.692;23.278;2023-02-19T04:46:45;95374.69;;;7.85;59.79
6132;BME280;3097;42.692;23.278;2023-02-19T04:49:11;95376.31;;;7.93;59.53
6132;BME280;3097;42.692;23.278;2023-02-19T04:51:37;95380.03;;;7.90;59.48
6132;BME280;3097;42.692;23.278;2023-02-19T04:54:03;95380.25;;;7.89;59.71
6132;BME280;3097;42.692;23.278;2023-02-19T04:56:28;95381.66;;;7.98;59.49
6132;BME280;3097;42.692;23.278;2023-02-19T04:58:56;95380.84;;;7.97;59.13
6132;BME280;3097;42.692;23.278;2023-02-19T05:01:22;95381.25;;;7.88;59.73
6132;BME280;3097;42.692;23.278;2023-02-19T05:03:49;95392.72;;;7.98;58.87
6132;BME280;3097;42.692;23.278;2023-02-19T05:06:14;95363.63;;;7.78;59.11
6132;BME280;3097;42.692;23.278;2023-02-19T05:08:40;95391.13;;;7.97;58.94
6132;BME280;3097;42.692;23.278;2023-02-19T05:11:07;95385.56;;;7.87;59.31
6132;BME280;3097;42.692;23.278;2023-02-19T05:13:32;95375.16;;;7.95;58.84
6132;BME280;3097;42.692;23.278;2023-02-19T05:16:10;95355.31;;;7.76;58.93
6132;BME280;3097;42.692;23.278;2023-02-19T05:18:40;95380.13;;;8.03;58.65
6132;BME280;3097;42.692;23.278;2023-02-19T05:21:07;95389.00;;;8.14;58.24
6132;BME280;3097;42.692;23.278;2023-02-19T05:23:33;95384.47;;;8.09;58.73
6132;BME280;3097;42.692;23.278;2023-02-19T05:25:58;95392.94;;;8.03;59.12
6132;BME280;3097;42.692;23.278;2023-02-19T05:28:28;95378.38;;;8.17;58.87
6132;BME280;3097;42.692;23.278;2023-02-19T05:30:55;95383.31;;;8.19;58.93
6132;BME280;3097;42.692;23.278;2023-02-19T05:33:23;95391.69;;;8.34;58.71
6132;BME280;3097;42.692;23.278;2023-02-19T05:35:54;95402.16;;;8.45;58.95
6132;BME280;3097;42.692;23.278;2023-02-19T05:38:19;95395.28;;;8.66;58.21
6132;BME280;3097;42.692;23.278;2023-02-19T05:40:45;95397.47;;;8.82;57.52
6132;BME280;3097;42.692;23.278;2023-02-19T05:43:11;95405.59;;;8.92;57.48
6132;BME280;3097;42.692;23.278;2023-02-19T05:45:37;95387.78;;;9.17;56.45
6132;BME280;3097;42.692;23.278;2023-02-19T05:48:03;95378.47;;;9.03;56.77
6132;BME280;3097;42.692;23.278;2023-02-19T05:50:31;95388.94;;;9.27;57.00
6132;BME280;3097;42.692;23.278;2023-02-19T05:53:00;95392.50;;;9.40;56.23
6132;BME280;3097;42.692;23.278;2023-02-19T05:55:27;95402.56;;;9.48;56.30
6132;BME280;3097;42.692;23.278;2023-02-19T05:57:52;95403.75;;;9.58;55.98
6132;BME280;3097;42.692;23.278;2023-02-19T06:00:18;95409.44;;;9.74;55.66
6132;BME280;3097;42.692;23.278;2023-02-19T06:02:44;95415.97;;;9.83;55.17
6132;BME280;3097;42.692;23.278;2023-02-19T06:05:10;95426.38;;;10.01;54.92
6132;BME280;3097;42.692;23.278;2023-02-19T06:07:35;95400.63;;;10.01;54.87
6132;BME280;3097;42.692;23.278;2023-02-19T06:10:10;95437.78;;;10.31;54.31
6132;BME280;3097;42.692;23.278;2023-02-19T06:12:37;95428.75;;;10.54;53.46
6132;BME280;3097;42.692;23.278;2023-02-19T06:15:04;95436.09;;;10.57;53.68
6132;BME280;3097;42.692;23.278;2023-02-19T06:17:31;95421.63;;;10.56;53.86
6132;BME280;3097;42.692;23.278;2023-02-19T06:19:57;95436.59;;;10.72;53.50
6132;BME280;3097;42.692;23.278;2023-02-19T06:22:23;95438.09;;;10.86;53.18
6132;BME280;3097;42.692;23.278;2023-02-19T06:24:49;95442.91;;;11.07;52.45
6132;BME280;3097;42.692;23.278;2023-02-19T06:27:14;95434.94;;;11.09;52.46
6132;BME280;3097;42.692;23.278;2023-02-19T06:29:40;95437.16;;;11.30;52.19
6132;BME280;3097;42.692;23.278;2023-02-19T06:32:06;95443.91;;;11.31;52.10
6132;BME280;3097;42.692;23.278;2023-02-19T06:34:32;95442.72;;;11.52;51.40
6132;BME280;3097;42.692;23.278;2023-02-19T06:36:58;95440.44;;;11.62;51.70
6132;BME280;3097;42.692;23.278;2023-02-19T06:39:24;95437.22;;;11.67;51.33
6132;BME280;3097;42.692;23.278;2023-02-19T06:41:50;95371.78;;;11.36;51.31
6132;BME280;3097;42.692;23.278;2023-02-19T06:44:15;95413.06;;;11.61;51.68
6132;BME280;3097;42.692;23.278;2023-02-19T06:46:41;95435.91;;;12.00;50.19
6132;BME280;3097;42.692;23.278;2023-02-19T06:49:07;95433.97;;;12.14;49.63
6132;BME280;3097;42.692;23.278;2023-02-19T06:51:32;95438.84;;;12.22;49.78
6132;BME280;3097;42.692;23.278;2023-02-19T06:53:58;95435.47;;;12.22;50.17
6132;BME280;3097;42.692;23.278;2023-02-19T06:56:29;95442.94;;;12.30;50.03
6132;BME280;3097;42.692;23.278;2023-02-19T06:58:57;95448.44;;;12.33;50.13
6132;BME280;3097;42.692;23.278;2023-02-19T07:01:24;95449.69;;;12.31;49.96
6132;BME280;3097;42.692;23.278;2023-02-19T07:03:50;95461.16;;;12.35;48.19
6132;BME280;3097;42.692;23.278;2023-02-19T07:06:17;95462.03;;;12.29;49.13
6132;BME280;3097;42.692;23.278;2023-02-19T07:08:43;95452.28;;;12.31;48.25
6132;BME280;3097;42.692;23.278;2023-02-19T07:11:08;95452.19;;;12.19;48.57
6132;BME280;3097;42.692;23.278;2023-02-19T07:13:34;95456.44;;;12.14;47.98
6132;BME280;3097;42.692;23.278;2023-02-19T07:16:01;95454.78;;;12.01;48.74
6132;BME280;3097;42.692;23.278;2023-02-19T07:18:28;95424.84;;;11.75;48.78
6132;BME280;3097;42.692;23.278;2023-02-19T07:20:54;95407.88;;;11.61;49.23
6132;BME280;3097;42.692;23.278;2023-02-19T07:23:19;95434.03;;;11.89;49.07
6132;BME280;3097;42.692;23.278;2023-02-19T07:25:45;95441.66;;;11.84;49.31
6132;BME280;3097;42.692;23.278;2023-02-19T07:28:10;95445.03;;;11.85;49.10
6132;BME280;3097;42.692;23.278;2023-02-19T07:30:36;95435.63;;;11.65;50.08
6132;BME280;3097;42.692;23.278;2023-02-19T07:33:01;95402.56;;;12.29;49.41
6132;BME280;3097;42.692;23.278;2023-02-19T07:35:27;95420.94;;;14.72;44.85
6132;BME280;3097;42.692;23.278;2023-02-19T07:37:53;95423.91;;;17.22;38.60
6132;BME280;3097;42.692;23.278;2023-02-19T07:40:18;95409.34;;;19.43;35.03
6132;BME280;3097;42.692;23.278;2023-02-19T07:42:44;95416.81;;;21.48;32.12
6132;BME280;3097;42.692;23.278;2023-02-19T07:45:09;95397.97;;;23.16;29.17
6132;BME280;3097;42.692;23.278;2023-02-19T07:47:35;95400.91;;;24.84;26.07
6132;BME280;3097;42.692;23.278;2023-02-19T07:50:00;95397.66;;;26.07;25.68
6132;BME280;3097;42.692;23.278;2023-02-19T07:52:26;95350.34;;;26.71;23.47
6132;BME280;3097;42.692;23.278;2023-02-19T07:54:52;95406.06;;;27.34;23.54
6132;BME280;3097;42.692;23.278;2023-02-19T07:57:18;95394.63;;;28.06;22.08
6132;BME280;3097;42.692;23.278;2023-02-19T07:59:43;95390.34;;;28.81;21.78
6132;BME280;3097;42.692;23.278;2023-02-19T08:02:19;95380.94;;;29.05;20.70
6132;BME280;3097;42.692;23.278;2023-02-19T08:05:04;95403.31;;;29.70;20.50
6132;BME280;3097;42.692;23.278;2023-02-19T08:07:34;95399.28;;;29.63;20.72
6132;BME280;3097;42.692;23.278;2023-02-19T08:10:00;95396.63;;;29.63;20.69
6132;BME280;3097;42.692;23.278;2023-02-19T08:12:54;95392.75;;;29.28;21.00
6132;BME280;3097;42.692;23.278;2023-02-19T08:15:38;95374.19;;;28.66;20.74
6132;BME280;3097;42.692;23.278;2023-02-19T08:18:03;95383.91;;;28.03;21.93
6132;BME280;3097;42.692;23.278;2023-02-19T08:20:29;95399.97;;;27.43;22.93
6132;BME280;3097;42.692;23.278;2023-02-19T08:22:54;95381.00;;;26.72;23.64
6132;BME280;3097;42.692;23.278;2023-02-19T08:25:19;95402.72;;;25.95;22.76
6132;BME280;3097;42.692;23.278;2023-02-19T08:27:45;95402.31;;;24.67;25.29
6132;BME280;3097;42.692;23.278;2023-02-19T08:30:10;95387.13;;;23.69;25.64
6132;BME280;3097;42.692;23.278;2023-02-19T08:32:36;95405.44;;;22.71;27.49
6132;BME280;3097;42.692;23.278;2023-02-19T08:35:01;95407.97;;;21.96;28.56
6132;BME280;3097;42.692;23.278;2023-02-19T08:37:27;95409.91;;;21.86;29.91
6132;BME280;3097;42.692;23.278;2023-02-19T08:39:52;95402.63;;;21.78;29.39
6132;BME280;3097;42.692;23.278;2023-02-19T08:42:18;95401.88;;;21.48;30.40
6132;BME280;3097;42.692;23.278;2023-02-19T08:44:43;95400.25;;;21.52;30.66
6132;BME280;3097;42.692;23.278;2023-02-19T08:47:09;95394.25;;;21.76;30.71
6132;BME280;3097;42.692;23.278;2023-02-19T08:49:34;95396.19;;;21.89;29.94
6132;BME280;3097;42.692;23.278;2023-02-19T08:51:59;95390.94;;;21.89;29.65
6132;BME280;3097;42.692;23.278;2023-02-19T08:54:25;95390.22;;;21.83;30.17
6132;BME280;3097;42.692;23.278;2023-02-19T08:56:50;95386.34;;;22.05;30.54
6132;BME280;3097;42.692;23.278;2023-02-19T08:59:16;95372.19;;;22.24;30.17
6132;BME280;3097;42.692;23.278;2023-02-19T09:01:43;95364.59;;;22.23;30.03
6132;BME280;3097;42.692;23.278;2023-02-19T09:04:11;95373.53;;;22.40;30.38
6132;BME280;3097;42.692;23.278;2023-02-19T09:06:36;95370.28;;;22.49;29.86
6132;BME280;3097;42.692;23.278;2023-02-19T09:09:02;95364.19;;;22.11;30.25
6132;BME280;3097;42.692;23.278;2023-02-19T09:11:27;95378.38;;;21.62;31.08
6132;BME280;3097;42.692;23.278;2023-02-19T09:13:55;95372.72;;;21.16;31.61
6132;BME280;3097;42.692;23.278;2023-02-19T09:16:20;95362.78;;;20.40;31.81
6132;BME280;3097;42.692;23.278;2023-02-19T09:18:46;95361.84;;;20.10;33.40
6132;BME280;3097;42.692;23.278;2023-02-19T09:21:12;95361.59;;;20.07;34.14
6132;BME280;3097;42.692;23.278;2023-02-19T09:23:37;95357.72;;;19.99;34.22
6132;BME280;3097;42.692;23.278;2023-02-19T09:26:04;95361.59;;;20.02;34.16
6132;BME280;3097;42.692;23.278;2023-02-19T09:28:32;95360.91;;;19.81;34.00
6132;BME280;3097;42.692;23.278;2023-02-19T09:31:05;95354.19;;;19.34;35.77
6132;BME280;3097;42.692;23.278;2023-02-19T09:33:31;95318.44;;;18.84;36.13
6132;BME280;3097;42.692;23.278;2023-02-19T09:35:59;95350.03;;;19.03;36.56
6132;BME280;3097;42.692;23.278;2023-02-19T09:38:25;95351.84;;;18.67;37.29
6132;BME280;3097;42.692;23.278;2023-02-19T09:40:51;95360.66;;;18.46;36.99
6132;BME280;3097;42.692;23.278;2023-02-19T09:43:19;95358.22;;;18.14;37.32
6132;BME280;3097;42.692;23.278;2023-02-19T09:45:47;95356.88;;;17.96;37.79
6132;BME280;3097;42.692;23.278;2023-02-19T09:48:16;95353.97;;;17.98;38.19
6132;BME280;3097;42.692;23.278;2023-02-19T09:50:46;95338.63;;;17.96;37.50
6132;BME280;3097;42.692;23.278;2023-02-19T09:53:19;95343.78;;;17.91;37.61
6132;BME280;3097;42.692;23.278;2023-02-19T09:55:48;95334.38;;;17.80;37.99
6132;BME280;3097;42.692;23.278;2023-02-19T10:00:38;95303.06;;;17.80;37.20
6132;BME280;3097;42.692;23.278;2023-02-19T10:03:09;95312.00;;;17.94;36.68
6132;BME280;3097;42.692;23.278;2023-02-19T10:05:37;95312.50;;;17.91;37.47
6132;BME280;3097;42.692;23.278;2023-02-19T10:08:06;95302.59;;;17.88;37.55
6132;BME280;3097;42.692;23.278;2023-02-19T10:10:35;95287.19;;;17.92;37.05
6132;BME280;3097;42.692;23.278;2023-02-19T10:13:18;95299.22;;;18.03;36.26
6132;BME280;3097;42.692;23.278;2023-02-19T10:15:55;95284.59;;;17.97;35.89
6132;BME280;3097;42.692;23.278;2023-02-19T10:18:23;95280.09;;;17.72;37.28
6132;BME280;3097;42.692;23.278;2023-02-19T10:20:50;95276.38;;;17.58;38.11
6132;BME280;3097;42.692;23.278;2023-02-19T10:23:17;95248.44;;;17.53;37.07
6132;BME280;3097;42.692;23.278;2023-02-19T10:25:48;95225.19;;;17.41;36.21
6132;BME280;3097;42.692;23.278;2023-02-19T10:28:17;95250.94;;;17.28;37.09
6132;BME280;3097;42.692;23.278;2023-02-19T10:30:51;95256.63;;;17.20;37.20
6132;BME280;3097;42.692;23.278;2023-02-19T10:33:18;95247.97;;;17.09;37.44
6132;BME280;3097;42.692;23.278;2023-02-19T10:36:02;95255.19;;;16.97;38.05
6132;BME280;3097;42.692;23.278;2023-02-19T10:38:36;95242.00;;;16.72;38.45
6132;BME280;3097;42.692;23.278;2023-02-19T10:41:24;95235.31;;;16.86;38.43
6132;BME280;3097;42.692;23.278;2023-02-19T10:46:30;95224.59;;;16.77;38.04
6132;BME280;3097;42.692;23.278;2023-02-19T10:49:03;95212.34;;;16.73;38.90
6132;BME280;3097;42.692;23.278;2023-02-19T10:51:32;95212.88;;;16.75;38.43
6132;BME280;3097;42.692;23.278;2023-02-19T10:56:41;95207.06;;;16.62;39.18
6132;BME280;3097;42.692;23.278;2023-02-19T10:59:24;95197.19;;;16.64;38.74
6132;BME280;3097;42.692;23.278;2023-02-19T11:02:01;95158.56;;;16.51;38.84
6132;BME280;3097;42.692;23.278;2023-02-19T11:04:31;95188.88;;;16.68;38.67
6132;BME280;3097;42.692;23.278;2023-02-19T11:09:53;95176.22;;;16.86;38.23
6132;BME280;3097;42.692;23.278;2023-02-19T11:12:30;95174.13;;;16.83;38.50
6132;BME280;3097;42.692;23.278;2023-02-19T11:15:12;95164.53;;;16.94;38.12
6132;BME280;3097;42.692;23.278;2023-02-19T11:17:42;95166.69;;;17.07;36.88
6132;BME280;3097;42.692;23.278;2023-02-19T11:20:14;95148.19;;;17.09;37.00
6132;BME280;3097;42.692;23.278;2023-02-19T11:22:43;95139.09;;;17.16;36.42
6132;BME280;3097;42.692;23.278;2023-02-19T11:28:01;95108.31;;;17.03;36.75
6132;BME280;3097;42.692;23.278;2023-02-19T11:30:39;95105.16;;;16.91;37.73
6132;BME280;3097;42.692;23.278;2023-02-19T11:38:41;95115.16;;;17.24;35.56
6132;BME280;3097;42.692;23.278;2023-02-19T11:50:19;95093.28;;;17.30;36.43
6132;BME280;3097;42.692;23.278;2023-02-19T11:53:00;95094.84;;;17.21;37.14
6132;BME280;3097;42.692;23.278;2023-02-19T12:11:48;95070.91;;;17.50;35.31
6132;BME280;3097;42.692;23.278;2023-02-19T12:16:52;95055.03;;;17.51;35.36
6132;BME280;3097;42.692;23.278;2023-02-19T12:22:14;95058.44;;;17.62;35.03
6132;BME280;3097;42.692;23.278;2023-02-19T12:38:21;95008.13;;;17.71;34.06
6132;BME280;3097;42.692;23.278;2023-02-19T12:43:40;95010.47;;;17.73;33.87
6132;BME280;3097;42.692;23.278;2023-02-19T12:46:22;94990.09;;;17.55;34.04
6132;BME280;3097;42.692;23.278;2023-02-19T12:49:24;94990.66;;;17.72;34.20
6132;BME280;3097;42.692;23.278;2023-02-19T12:51:57;94983.09;;;17.70;33.82
6132;BME280;3097;42.692;23.278;2023-02-19T12:54:28;94975.75;;;17.83;33.82
6132;BME280;3097;42.692;23.278;2023-02-19T12:56:59;94974.19;;;17.92;33.64
6132;BME280;3097;42.692;23.278;2023-02-19T13:02:17;94964.53;;;17.82;33.55
6132;BME280;3097;42.692;23.278;2023-02-19T13:05:05;94957.53;;;17.77;33.74
6132;BME280;3097;42.692;23.278;2023-02-19T13:07:38;94956.22;;;17.75;33.36
6132;BME280;3097;42.692;23.278;2023-02-19T13:12:45;94954.88;;;17.98;33.14
6132;BME280;3097;42.692;23.278;2023-02-19T13:15:17;94930.66;;;17.87;33.45
6132;BME280;3097;42.692;23.278;2023-02-19T13:17:49;94947.59;;;17.95;33.51
6132;BME280;3097;42.692;23.278;2023-02-19T13:20:25;94944.97;;;17.90;33.37
6132;BME280;3097;42.692;23.278;2023-02-19T13:33:43;94911.31;;;17.98;33.53
6132;BME280;3097;42.692;23.278;2023-02-19T13:36:15;94807.44;;;17.41;33.18
6132;BME280;3097;42.692;23.278;2023-02-19T13:38:46;94908.16;;;18.11;33.07
6132;BME280;3097;42.692;23.278;2023-02-19T13:41:25;94828.25;;;17.61;33.03
6132;BME280;3097;42.692;23.278;2023-02-19T13:44:06;94904.13;;;18.29;32.56
6132;BME280;3097;42.692;23.278;2023-02-19T13:46:42;94905.19;;;18.33;32.77
6132;BME280;3097;42.692;23.278;2023-02-19T13:59:51;94898.00;;;18.00;33.52
6132;BME280;3097;42.692;23.278;2023-02-19T14:05:07;94890.50;;;17.83;33.65
6132;BME280;3097;42.692;23.278;2023-02-19T14:09:59;94883.47;;;17.78;33.79
6132;BME280;3097;42.692;23.278;2023-02-19T14:12:34;94854.03;;;17.68;33.64
6132;BME280;3097;42.692;23.278;2023-02-19T14:21:16;94867.63;;;17.65;34.18
6132;BME280;3097;42.692;23.278;2023-02-19T14:23:42;94868.63;;;17.69;34.15
6132;BME280;3097;42.692;23.278;2023-02-19T14:26:08;94855.28;;;17.86;33.62
6132;BME280;3097;42.692;23.278;2023-02-19T14:28:43;94850.56;;;17.93;33.27
6132;BME280;3097;42.692;23.278;2023-02-19T14:33:49;94850.72;;;18.16;33.32
6132;BME280;3097;42.692;23.278;2023-02-19T14:36:38;94856.94;;;18.26;34.17
6132;BME280;3097;42.692;23.278;2023-02-19T14:41:43;94855.34;;;18.30;33.54
6132;BME280;3097;42.692;23.278;2023-02-19T14:44:19;94847.28;;;18.26;33.48
6132;BME280;3097;42.692;23.278;2023-02-19T14:46:59;94844.38;;;18.28;33.29
6132;BME280;3097;42.692;23.278;2023-02-19T14:49:47;94836.63;;;18.12;33.76
6132;BME280;3097;42.692;23.278;2023-02-19T14:52:21;94835.84;;;18.17;33.50
6132;BME280;3097;42.692;23.278;2023-02-19T14:55:35;94828.81;;;18.12;33.53
6132;BME280;3097;42.692;23.278;2023-02-19T14:57:43;94831.19;;;18.09;34.04
6132;BME280;3097;42.692;23.278;2023-02-19T15:02:44;94834.03;;;18.12;34.20
6132;BME280;3097;42.692;23.278;2023-02-19T15:05:20;94836.31;;;18.24;33.69
6132;BME280;3097;42.692;23.278;2023-02-19T15:07:46;94797.88;;;17.96;33.57
6132;BME280;3097;42.692;23.278;2023-02-19T15:10:13;94824.16;;;18.09;33.32
6132;BME280;3097;42.692;23.278;2023-02-19T15:12:50;94830.41;;;18.08;33.83
6132;BME280;3097;42.692;23.278;2023-02-19T15:15:24;94829.28;;;18.19;33.86
6132;BME280;3097;42.692;23.278;2023-02-19T15:17:55;94811.44;;;17.93;34.06
6132;BME280;3097;42.692;23.278;2023-02-19T15:20:24;94833.41;;;17.76;34.20
6132;BME280;3097;42.692;23.278;2023-02-19T15:22:52;94824.34;;;17.59;34.89
6132;BME280;3097;42.692;23.278;2023-02-19T15:25:21;94830.59;;;17.63;35.02
6132;BME280;3097;42.692;23.278;2023-02-19T15:27:47;94834.78;;;17.49;36.65
6132;BME280;3097;42.692;23.278;2023-02-19T15:32:51;94836.66;;;17.28;37.76
6132;BME280;3097;42.692;23.278;2023-02-19T15:35:19;94846.78;;;17.29;38.14
6132;BME280;3097;42.692;23.278;2023-02-19T15:37:45;94844.19;;;17.14;38.35
6132;BME280;3097;42.692;23.278;2023-02-19T15:40:13;94860.38;;;17.11;38.20
6132;BME280;3097;42.692;23.278;2023-02-19T15:42:40;94866.88;;;17.19;38.36
6132;BME280;3097;42.692;23.278;2023-02-19T15:48:08;94865.81;;;17.15;38.74
6132;BME280;3097;42.692;23.278;2023-02-19T15:50:40;94865.06;;;17.04;39.21
6132;BME280;3097;42.692;23.278;2023-02-19T15:53:18;94876.00;;;17.06;39.16